Portada
METAR-TAF:

METAR-TAF

Aeroports :

Najran, Aràbia Saudita

latitud: 17-37N, longitud: 044-25E, altitud: 1212 m

Observació

L'informe es va fer fa 55 minuts, a les 20:00 UTC
Vent 6 kt del Est
Temperatura 26°C
Humitat 24%
Pressió 1018 hPa
Visibilitat 10 km o més
sense núvols per sota de 1500 mi sense presència de cumulonimbus.

METAR: OENG 072000Z 09006KT CAVOK 26/04 Q1018 NOSIG

Hora: 23:55 (20:55 UTC)

Pronòstic

L'informe es va fer fa 9 hores i 55 minuts, a les 11:00 UTC
Pronòstic vàlid del 07 a les 12 UTC al 08 a les 18 UTC
Vent 13 kt del Est/Sud-Est
Visibilitat: 8000 m
Temporalment
l' 07 a les 12 UTC al 07 a les 20 UTC
Visibilitat: 4000 m
Pols estès
Evolucionant progressivament
l' 07 a les 18 UTC al 07 a les 20 UTC
Vent 3 kt amb direcció variable
Evolucionant progressivament
l' 08 a les 06 UTC al 08 a les 08 UTC
Vent 14 kt del Sud-Est

TAF: OENG 071100Z 0712/0818 12013KT 8000 NSC TEMPO 0712/0720 4000 DU BECMG 0718/0720 VRB03KT BECMG 0806/0808 13014KT

Observacions i pronòstics meteorològics de més de 4000 aeroports (METAR i TAF).

Les estacions disponibles són els punts grocs i vermells al mapa.

Posi el ratolí al punt desitjat per veure el nom de l'estació.

Feu clic per veure les observacions i els pronòstics meteorològics.

Per canviar el mapa: feu clic els botons verds amb una creu de color negre per apropar; al botó verd amb un guió per allunyar la imatge; o en les fletxes verdes per a mapes adjacents.


METAR-TAF: